Terminal Aerodrome Forecast
Issued by NWS Springfield, MO

Home | Current Version | Previous Version | Text Only | Print | Product List | Glossary On
Versions: 1 2 3 4 5 6 7 8 9 10 11 12 13 14 15 16 17 18 19 20 21 22 23 24
000
FTUS43 KSGF 052100 AAA
TAFSGF
TAF AMD
KSGF 052139Z 0522/0618 14012KT P6SM VCTS SCT030CB BKN120
      TEMPO 0522/0524 15030KT 5SM -TSRA BKN030CB OVC120
     FM060000 16007KT P6SM SCT070
     FM060600 16011KT P6SM SCT250 WS015/22035KT
     FM061500 20014G20KT P6SM BKN050=

USA.gov is the U.S. government's official web portal to all federal, state and local government web resources and services.